Time;durP1;ratioP1;P1;durP2;ratioP2;P2;SDS_P1;SDS_P2;PMS_P1;PMS_P2;Temp;Humidity;BMP_temperature;BMP_pressure;BME280_temperature;BME280_humidity;BME280_pressure;Samples;Min_cycle;Max_cycle;Signal;HPM_P1;HPM_P2
2022/04/22 00:01:28;;;;;;;13.02;7.95;;;9.50;99.90;;;;;;5003631;28;20053;-86
2022/04/22 00:03:54;;;;;;;12.75;7.00;;;9.50;99.90;;;;;;5011356;28;20068;-85
2022/04/22 00:06:20;;;;;;;14.20;6.72;;;9.50;99.90;;;;;;4998555;28;20042;-86
2022/04/22 00:08:46;;;;;;;14.32;7.57;;;9.40;99.90;;;;;;4997229;28;20049;-87
2022/04/22 00:11:29;;;;;;;17.13;8.30;;;9.40;99.90;;;;;;5015444;28;20119;-86
2022/04/22 00:14:04;;;;;;;15.30;8.40;;;9.40;99.90;;;;;;5031643;28;20041;-87
2022/04/22 00:16:31;;;;;;;16.58;7.75;;;9.30;99.90;;;;;;5025283;28;20521;-87
2022/04/22 00:18:57;;;;;;;20.08;8.25;;;9.30;99.90;;;;;;5033716;28;20049;-87
2022/04/22 00:21:23;;;;;;;14.93;8.43;;;9.30;99.90;;;;;;5028597;28;20053;-87
2022/04/22 00:23:50;;;;;;;15.70;8.32;;;9.30;99.90;;;;;;5016137;28;20056;-86
2022/04/22 00:26:16;;;;;;;16.10;8.32;;;9.20;99.90;;;;;;4986265;28;20083;-86
2022/04/22 00:28:42;;;;;;;16.88;7.68;;;9.20;99.90;;;;;;5031322;28;20048;-86
2022/04/22 00:31:08;;;;;;;16.38;8.63;;;9.20;99.90;;;;;;5003511;28;20110;-87
2022/04/22 00:33:33;;;;;;;16.85;8.73;;;9.20;99.90;;;;;;5003707;28;20052;-87
2022/04/22 00:35:59;;;;;;;16.77;8.20;;;9.20;99.90;;;;;;4973511;28;20046;-87
2022/04/22 00:38:25;;;;;;;14.73;8.55;;;9.10;99.90;;;;;;4999976;28;20111;-86
2022/04/22 00:40:52;;;;;;;15.23;8.18;;;9.10;99.90;;;;;;5017754;28;20045;-87
2022/04/22 00:43:21;;;;;;;16.65;9.35;;;9.10;99.90;;;;;;4998236;28;20512;-87
2022/04/22 00:45:48;;;;;;;13.25;8.40;;;9.10;99.90;;;;;;4988100;28;20119;-87
2022/04/22 00:48:15;;;;;;;17.35;8.70;;;9.00;99.90;;;;;;5014255;28;20053;-87
2022/04/22 00:50:41;;;;;;;16.77;8.65;;;9.00;99.90;;;;;;5031879;28;20041;-86
2022/04/22 00:53:08;;;;;;;16.65;9.00;;;9.00;99.90;;;;;;5012848;28;20041;-86
2022/04/22 00:55:37;;;;;;;14.60;8.77;;;8.90;99.90;;;;;;5002084;28;20052;-87
2022/04/22 00:58:03;;;;;;;17.05;8.52;;;8.90;99.90;;;;;;5010176;28;20368;-87
2022/04/22 01:00:29;;;;;;;17.95;9.38;;;8.90;99.90;;;;;;5024473;28;20121;-86
2022/04/22 01:02:55;;;;;;;15.55;9.27;;;8.80;99.90;;;;;;5012698;28;20124;-87
2022/04/22 01:10:53;;;;;;;17.98;9.07;;;8.70;99.90;;;;;;5020836;28;20101;-87
2022/04/22 01:13:19;;;;;;;16.15;8.65;;;8.60;99.90;;;;;;5004031;28;20493;-86
2022/04/22 01:15:46;;;;;;;17.15;9.27;;;8.60;99.90;;;;;;5009143;28;20087;-86
2022/04/22 01:18:14;;;;;;;17.83;9.88;;;8.50;99.90;;;;;;5023171;28;20435;-87
2022/04/22 01:20:39;;;;;;;17.27;9.57;;;8.50;99.90;;;;;;4984732;28;20332;-86
2022/04/22 01:23:05;;;;;;;19.25;10.15;;;8.40;99.90;;;;;;5012632;28;20131;-86
2022/04/22 01:25:31;;;;;;;19.98;8.85;;;8.50;99.90;;;;;;5019513;28;20073;-87
2022/04/22 01:27:58;;;;;;;18.35;9.63;;;8.40;99.90;;;;;;4995231;28;20092;-86
2022/04/22 01:30:24;;;;;;;17.88;9.50;;;8.40;99.90;;;;;;4985947;28;20045;-85
2022/04/22 01:32:51;;;;;;;19.17;9.32;;;8.40;99.90;;;;;;5020442;28;20053;-87
2022/04/22 01:35:20;;;;;;;16.40;9.55;;;8.30;99.90;;;;;;5000855;28;20075;-86
2022/04/22 01:37:47;;;;;;;18.98;10.32;;;8.30;99.90;;;;;;5019689;28;20049;-87
2022/04/22 01:40:13;;;;;;;17.85;9.98;;;8.30;99.90;;;;;;5004124;28;20080;-86
2022/04/22 01:42:39;;;;;;;21.13;10.25;;;8.20;99.90;;;;;;5015954;28;20127;-85
2022/04/22 01:45:07;;;;;;;20.90;9.38;;;8.20;99.90;;;;;;5014035;28;20049;-86
2022/04/22 01:47:33;;;;;;;15.05;9.65;;;8.10;99.90;;;;;;5024264;28;20492;-85
2022/04/22 01:49:59;;;;;;;18.17;9.55;;;8.10;99.90;;;;;;4979524;28;20049;-86
2022/04/22 01:52:27;;;;;;;19.58;9.85;;;8.10;99.90;;;;;;5011897;28;20060;-86
2022/04/22 01:54:55;;;;;;;21.70;10.10;;;8.00;99.90;;;;;;4979347;28;20626;-86
2022/04/22 01:57:23;;;;;;;21.52;10.63;;;8.00;99.90;;;;;;5015423;28;20056;-86
2022/04/22 01:59:50;;;;;;;20.45;10.80;;;8.00;99.90;;;;;;4993690;28;20429;-86
2022/04/22 02:02:16;;;;;;;18.70;9.88;;;8.00;99.90;;;;;;4985022;28;20064;-86
2022/04/22 02:04:42;;;;;;;20.38;9.73;;;8.00;99.90;;;;;;5005704;28;20088;-85
2022/04/22 02:07:08;;;;;;;18.48;9.88;;;8.00;99.90;;;;;;4996371;28;20136;-85
2022/04/22 02:09:34;;;;;;;20.80;10.27;;;8.00;99.90;;;;;;5011510;28;20041;-85
2022/04/22 02:12:00;;;;;;;19.02;10.00;;;7.90;99.90;;;;;;4992408;28;20071;-86
2022/04/22 02:14:26;;;;;;;21.98;9.95;;;7.90;99.90;;;;;;5014961;28;20056;-86
2022/04/22 02:16:52;;;;;;;19.50;9.20;;;7.90;99.90;;;;;;4997153;28;20487;-86
2022/04/22 02:19:18;;;;;;;18.33;10.20;;;7.90;99.90;;;;;;5012236;28;20643;-86
2022/04/22 02:21:44;;;;;;;16.20;9.48;;;7.90;99.90;;;;;;5006585;28;20049;-87
2022/04/22 02:24:10;;;;;;;20.02;9.13;;;7.80;99.90;;;;;;5013455;28;20042;-86
2022/04/22 02:29:21;;;;;;;16.88;9.18;;;7.90;99.90;;;;;;4998074;28;20403;-86
2022/04/22 02:31:48;;;;;;;14.60;9.07;;;7.80;99.90;;;;;;5006822;28;20049;-87
2022/04/22 02:34:14;;;;;;;20.05;9.65;;;7.90;99.90;;;;;;5031471;28;20061;-87
2022/04/22 02:36:43;;;;;;;15.82;8.88;;;7.80;99.90;;;;;;5016415;28;20092;-87
2022/04/22 02:39:09;;;;;;;16.20;8.43;;;7.80;99.90;;;;;;4996633;28;20041;-87
2022/04/22 02:47:04;;;;;;;13.45;7.93;;;7.70;99.90;;;;;;5017899;28;20064;-86
2022/04/22 02:49:30;;;;;;;12.40;7.70;;;7.60;99.90;;;;;;5000006;28;20045;-86
2022/04/22 02:51:56;;;;;;;13.93;7.50;;;7.60;99.90;;;;;;5019446;28;20053;-86
2022/04/22 02:54:21;;;;;;;12.55;8.32;;;7.60;99.90;;;;;;4999052;28;20046;-86
2022/04/22 02:56:50;;;;;;;15.77;7.70;;;7.70;99.90;;;;;;4989626;28;20064;-86
2022/04/22 02:59:17;;;;;;;13.55;7.53;;;7.60;99.90;;;;;;5001982;28;20048;-86
2022/04/22 03:01:43;;;;;;;12.60;7.47;;;7.60;99.90;;;;;;5002461;28;20052;-86
2022/04/22 03:04:12;;;;;;;12.73;7.25;;;7.50;99.90;;;;;;5001627;28;20041;-86
2022/04/22 03:06:38;;;;;;;11.93;7.30;;;7.50;99.90;;;;;;5034373;28;20056;-85
2022/04/22 03:09:04;;;;;;;12.80;7.32;;;7.50;99.90;;;;;;4991444;28;20037;-86
2022/04/22 03:11:30;;;;;;;13.25;7.22;;;7.50;99.90;;;;;;5007226;28;20073;-85
2022/04/22 03:13:56;;;;;;;14.63;7.20;;;7.50;99.90;;;;;;5016520;28;20099;-86
2022/04/22 03:16:26;;;;;;;13.40;7.15;;;7.50;99.90;;;;;;5011094;28;20037;-85
2022/04/22 03:18:52;;;;;;;13.95;6.32;;;7.40;99.90;;;;;;5032673;28;20099;-87
2022/04/22 03:21:18;;;;;;;9.93;6.25;;;7.30;99.90;;;;;;5030120;28;20781;-85
2022/04/22 03:23:45;;;;;;;13.82;6.95;;;7.30;99.90;;;;;;5008097;28;20056;-86
2022/04/22 03:26:11;;;;;;;11.20;6.57;;;7.30;99.90;;;;;;5024112;28;20040;-86
2022/04/22 03:28:38;;;;;;;9.25;5.95;;;7.40;99.90;;;;;;4983665;28;20102;-85
2022/04/22 03:31:04;;;;;;;9.90;5.95;;;7.20;99.90;;;;;;5014930;28;20057;-86
2022/04/22 03:33:30;;;;;;;15.18;7.05;;;7.30;99.90;;;;;;5017394;28;20075;-86
2022/04/22 03:35:56;;;;;;;9.13;6.18;;;7.20;99.90;;;;;;5026174;28;20045;-85
2022/04/22 03:38:23;;;;;;;11.77;6.72;;;7.30;99.90;;;;;;5012019;28;20103;-86
2022/04/22 03:40:51;;;;;;;9.80;6.50;;;7.20;99.90;;;;;;4987351;28;20593;-86
2022/04/22 03:43:17;;;;;;;12.18;6.50;;;7.10;99.90;;;;;;5030578;28;20041;-85
2022/04/22 03:45:43;;;;;;;10.70;6.20;;;7.10;99.90;;;;;;5013850;28;20049;-86
2022/04/22 03:48:10;;;;;;;13.02;6.45;;;7.00;99.90;;;;;;4999363;28;20190;-86
2022/04/22 03:50:37;;;;;;;14.30;6.80;;;7.10;99.90;;;;;;5003278;28;20134;-85
2022/04/22 03:53:08;;;;;;;16.33;7.47;;;7.00;99.90;;;;;;5016881;28;20045;-85
2022/04/22 03:55:34;;;;;;;10.63;6.55;;;7.00;99.90;;;;;;5032403;28;20060;-86
2022/04/22 03:58:12;;;;;;;12.20;6.47;;;6.90;99.90;;;;;;5017748;28;20053;-86
2022/04/22 04:00:48;;;;;;;12.50;6.15;;;6.90;99.90;;;;;;5006386;28;20112;-86
2022/04/22 04:03:19;;;;;;;13.65;6.65;;;6.80;99.90;;;;;;5012346;28;20138;-86
2022/04/22 04:05:50;;;;;;;8.95;6.25;;;6.80;99.90;;;;;;5010483;28;20552;-86
2022/04/22 04:08:20;;;;;;;13.40;6.47;;;6.80;99.90;;;;;;5019818;28;20057;-85
2022/04/22 04:16:16;;;;;;;9.73;6.15;;;6.70;99.90;;;;;;5025244;28;20485;-86
2022/04/22 04:18:42;;;;;;;12.27;5.78;;;6.60;99.90;;;;;;5005883;28;20042;-87
2022/04/22 04:23:54;;;;;;;11.05;5.65;;;6.70;99.90;;;;;;5019521;28;20045;-85
2022/04/22 04:26:24;;;;;;;12.82;7.00;;;6.60;99.90;;;;;;5004915;28;20049;-85
2022/04/22 04:28:50;;;;;;;11.30;6.20;;;6.70;99.90;;;;;;5022083;28;20049;-85
2022/04/22 04:31:16;;;;;;;11.77;6.15;;;6.60;99.90;;;;;;5017363;28;20045;-85
2022/04/22 04:33:43;;;;;;;12.35;6.72;;;6.60;99.90;;;;;;5017410;28;20057;-86
2022/04/22 04:36:10;;;;;;;11.13;5.80;;;6.60;99.90;;;;;;5014914;28;20120;-84
2022/04/22 04:38:38;;;;;;;10.30;6.55;;;6.60;99.90;;;;;;4989749;28;20093;-85
2022/04/22 04:41:05;;;;;;;8.45;6.00;;;6.60;99.90;;;;;;5030340;28;20045;-85
2022/04/22 04:43:32;;;;;;;10.18;5.57;;;6.60;99.90;;;;;;5016037;28;20049;-87
2022/04/22 04:45:58;;;;;;;9.38;6.00;;;6.60;99.90;;;;;;5004124;28;20040;-86
2022/04/22 04:48:24;;;;;;;12.98;6.03;;;6.70;99.90;;;;;;4998025;28;20064;-88
2022/04/22 04:50:51;;;;;;;9.30;5.88;;;6.60;99.90;;;;;;5023749;28;20170;-87
2022/04/22 04:53:20;;;;;;;11.07;6.38;;;6.70;99.90;;;;;;4986634;28;20245;-85
2022/04/22 04:55:54;;;;;;;14.05;6.47;;;6.70;99.90;;;;;;4991891;28;20460;-86
2022/04/22 04:58:22;;;;;;;10.05;6.00;;;6.70;99.90;;;;;;5017147;28;20527;-85
2022/04/22 05:00:58;;;;;;;8.70;5.78;;;6.70;99.90;;;;;;5012911;28;20771;-88
2022/04/22 05:03:24;;;;;;;10.02;5.57;;;6.70;99.90;;;;;;5014064;28;20053;-85
2022/04/22 05:06:02;;;;;;;;;;;;;;;;;;;;;
2022/04/22 05:08:30;;;;;;;11.32;5.93;;;6.80;99.90;;;;;;5013641;28;20052;-84
2022/04/22 05:10:58;;;;;;;9.45;5.75;;;6.90;99.90;;;;;;5019361;28;20470;-84
2022/04/22 05:13:24;;;;;;;10.30;5.10;;;6.80;99.90;;;;;;4997306;28;20056;-85
2022/04/22 05:15:51;;;;;;;12.38;6.30;;;6.90;99.90;;;;;;4980420;28;20041;-84
2022/04/22 05:18:18;;;;;;;11.02;6.63;;;6.90;99.90;;;;;;4997264;28;20049;-84
2022/04/22 05:20:47;;;;;;;9.25;5.03;;;7.00;99.90;;;;;;4997186;28;20041;-84
2022/04/22 05:23:13;;;;;;;8.05;5.50;;;7.00;99.90;;;;;;4981476;28;20046;-84
2022/04/22 05:25:38;;;;;;;10.68;5.18;;;7.10;99.90;;;;;;5012202;28;20146;-85
2022/04/22 05:28:07;;;;;;;11.18;5.57;;;7.10;99.90;;;;;;4996798;28;20152;-84
2022/04/22 05:33:20;;;;;;;8.82;5.32;;;7.20;99.90;;;;;;5011937;28;20055;-84
2022/04/22 05:35:46;;;;;;;10.50;5.13;;;7.30;99.90;;;;;;5005409;28;20050;-85
2022/04/22 05:38:12;;;;;;;7.00;4.82;;;7.40;99.90;;;;;;4962678;28;20041;-83
2022/04/22 05:40:38;;;;;;;14.85;6.05;;;7.40;99.90;;;;;;4996646;28;20054;-82
2022/04/22 05:43:08;;;;;;;9.90;5.88;;;7.50;99.90;;;;;;4997300;28;20115;-82
2022/04/22 05:45:36;;;;;;;11.25;5.45;;;7.60;99.90;;;;;;5002176;28;20454;-82
2022/04/22 05:48:03;;;;;;;10.35;4.85;;;7.70;99.90;;;;;;5009875;28;20041;-82
2022/04/22 05:50:29;;;;;;;8.35;5.50;;;7.80;99.90;;;;;;4980295;28;20056;-82
2022/04/22 05:52:55;;;;;;;10.13;5.40;;;7.90;99.90;;;;;;4995846;28;20045;-84
2022/04/22 05:55:23;;;;;;;10.38;5.63;;;8.10;99.90;;;;;;4993954;28;20041;-86
2022/04/22 05:57:50;;;;;;;11.52;5.90;;;8.20;99.90;;;;;;4995333;28;20041;-84
2022/04/22 06:00:18;;;;;;;10.38;5.05;;;8.40;99.90;;;;;;4995813;28;20085;-82
2022/04/22 06:02:45;;;;;;;8.77;5.18;;;8.40;99.90;;;;;;5011799;28;20443;-81
2022/04/22 06:05:12;;;;;;;10.38;5.43;;;8.60;99.90;;;;;;5003011;28;20126;-82
2022/04/22 06:07:39;;;;;;;7.13;4.88;;;8.70;99.90;;;;;;4974966;28;20128;-82
2022/04/22 06:12:50;;;;;;;7.43;4.90;;;8.90;99.90;;;;;;5012747;28;20536;-82
2022/04/22 06:15:15;;;;;;;8.05;5.05;;;9.10;99.90;;;;;;4989832;28;20054;-83
2022/04/22 06:17:41;;;;;;;10.98;5.35;;;9.20;99.90;;;;;;4989672;28;20049;-82
2022/04/22 06:20:08;;;;;;;11.82;5.18;;;9.30;99.90;;;;;;4983635;28;20120;-81
2022/04/22 06:22:33;;;;;;;7.25;4.65;;;9.40;99.90;;;;;;4967049;28;20682;-82
2022/04/22 06:24:59;;;;;;;6.95;4.72;;;9.50;99.90;;;;;;5005424;28;20103;-83
2022/04/22 06:27:26;;;;;;;10.20;5.07;;;9.60;99.90;;;;;;5028092;28;20054;-82
2022/04/22 06:29:54;;;;;;;10.75;5.00;;;9.60;99.90;;;;;;4971364;28;20566;-82
2022/04/22 06:32:22;;;;;;;6.72;4.43;;;9.60;99.90;;;;;;4999189;28;20120;-82
2022/04/22 06:34:52;;;;;;;8.02;4.93;;;9.60;99.90;;;;;;4995661;28;20104;-83
2022/04/22 06:37:18;;;;;;;6.75;4.78;;;9.60;99.90;;;;;;5014397;28;20046;-81
2022/04/22 06:47:58;;;;;;;8.38;4.00;;;9.60;99.90;;;;;;5004649;28;20050;-82
2022/04/22 06:50:24;;;;;;;6.95;4.10;;;9.60;99.90;;;;;;5015666;28;20053;-82
2022/04/22 06:52:50;;;;;;;6.70;3.90;;;9.60;99.90;;;;;;4994857;28;20046;-82
2022/04/22 06:55:17;;;;;;;6.32;4.20;;;9.60;99.90;;;;;;4984335;28;20103;-83
2022/04/22 06:57:51;;;;;;;5.90;4.03;;;9.70;99.90;;;;;;5011418;28;20124;-82
2022/04/22 07:00:18;;;;;;;5.72;4.07;;;9.70;99.90;;;;;;5010162;28;20110;-83
2022/04/22 07:02:45;;;;;;;6.07;3.50;;;9.70;99.90;;;;;;4989293;28;20418;-82
2022/04/22 07:05:11;;;;;;;5.85;3.85;;;9.60;99.90;;;;;;4997951;28;20046;-82
2022/04/22 07:07:37;;;;;;;5.07;3.47;;;9.60;99.90;;;;;;4998233;28;20072;-82
2022/04/22 07:10:04;;;;;;;8.45;4.15;;;9.70;99.90;;;;;;4987168;28;20049;-81
2022/04/22 07:12:31;;;;;;;8.57;4.03;;;9.70;99.90;;;;;;4979796;28;20046;-82
2022/04/22 07:15:05;;;;;;;7.35;4.07;;;9.70;99.90;;;;;;4995120;28;20077;-84
2022/04/22 07:17:32;;;;;;;5.47;3.30;;;9.70;99.90;;;;;;4992618;28;20511;-82
2022/04/22 07:20:03;;;;;;;8.88;3.95;;;9.70;99.90;;;;;;5014826;28;20061;-83
2022/04/22 07:22:29;;;;;;;8.20;4.30;;;9.80;99.90;;;;;;5015534;28;20381;-81
2022/04/22 07:24:56;;;;;;;7.35;3.83;;;9.80;99.90;;;;;;4992010;28;20053;-84
2022/04/22 07:27:30;;;;;;;6.05;3.65;;;9.80;99.90;;;;;;4981646;28;20050;-82
2022/04/22 07:29:58;;;;;;;6.78;3.50;;;9.80;99.90;;;;;;4979377;28;20566;-84
2022/04/22 07:32:24;;;;;;;5.63;3.20;;;9.90;99.90;;;;;;4958394;28;20054;-82
2022/04/22 07:34:50;;;;;;;6.35;3.50;;;9.90;99.90;;;;;;4992533;28;20054;-83
2022/04/22 07:37:16;;;;;;;6.30;3.55;;;9.90;99.90;;;;;;4994983;28;20196;-81
2022/04/22 07:39:42;;;;;;;5.57;3.22;;;10.00;99.90;;;;;;5009659;28;20050;-82
2022/04/22 07:42:12;;;;;;;6.68;3.40;;;10.00;99.90;;;;;;4972831;28;20050;-81
2022/04/22 07:47:23;;;;;;;7.20;3.03;;;10.10;99.90;;;;;;4997916;28;20057;-81
2022/04/22 07:49:51;;;;;;;5.65;2.78;;;10.20;99.90;;;;;;4977818;28;20046;-82
2022/04/22 07:52:16;;;;;;;5.50;3.22;;;10.20;99.90;;;;;;4983993;28;20157;-82
2022/04/22 07:54:42;;;;;;;7.35;2.85;;;10.20;99.90;;;;;;4996525;28;20178;-82
2022/04/22 07:57:10;;;;;;;6.00;2.58;;;10.30;99.90;;;;;;4991626;28;20051;-82
2022/04/22 07:59:36;;;;;;;3.45;2.60;;;10.30;99.90;;;;;;4996300;28;20479;-80
2022/04/22 08:02:02;;;;;;;3.58;2.55;;;10.40;99.90;;;;;;4975286;28;20053;-82
2022/04/22 08:04:28;;;;;;;7.00;2.90;;;10.50;99.90;;;;;;5001364;28;20050;-82
2022/04/22 08:06:54;;;;;;;5.97;3.00;;;10.60;99.90;;;;;;4993553;28;20395;-82
2022/04/22 08:09:20;;;;;;;4.55;2.78;;;10.70;99.90;;;;;;5000359;28;20140;-83
2022/04/22 08:11:45;;;;;;;4.45;3.00;;;10.70;99.90;;;;;;4977878;28;20116;-81
2022/04/22 08:14:12;;;;;;;7.32;3.00;;;10.70;99.90;;;;;;4994698;28;20539;-81
2022/04/22 08:16:41;;;;;;;5.20;2.80;;;10.80;99.90;;;;;;4974571;28;20038;-82
2022/04/22 08:19:06;;;;;;;6.85;2.85;;;10.90;99.90;;;;;;4978744;28;20054;-81
2022/04/22 08:21:33;;;;;;;8.48;2.78;;;10.90;99.90;;;;;;4991732;28;20052;-82
2022/04/22 08:24:03;;;;;;;7.18;2.90;;;11.00;99.90;;;;;;4981583;28;20514;-84
2022/04/22 08:26:31;;;;;;;4.07;2.55;;;11.10;99.90;;;;;;4983999;28;20046;-82
2022/04/22 08:28:57;;;;;;;5.60;3.10;;;11.10;99.90;;;;;;4994300;28;20049;-81
2022/04/22 08:31:23;;;;;;;6.35;2.75;;;11.20;99.90;;;;;;5007609;28;20046;-81
2022/04/22 08:33:49;;;;;;;4.03;2.63;;;11.30;99.90;;;;;;5004835;28;20065;-82
2022/04/22 08:36:15;;;;;;;8.95;3.20;;;11.40;99.90;;;;;;4976490;28;20113;-82
2022/04/22 08:38:41;;;;;;;5.72;3.35;;;11.50;99.90;;;;;;4986253;28;20437;-81
2022/04/22 08:41:09;;;;;;;7.03;2.80;;;11.60;99.90;;;;;;4991662;28;20091;-81
2022/04/22 08:43:37;;;;;;;4.88;2.90;;;11.80;99.90;;;;;;4993896;28;20085;-82
2022/04/22 08:46:02;;;;;;;5.75;3.05;;;11.90;99.90;;;;;;4991549;28;20132;-83
2022/04/22 08:51:15;;;;;;;2.93;2.40;;;12.20;99.90;;;;;;5003446;28;20046;-82
2022/04/22 08:53:43;;;;;;;7.18;3.40;;;12.40;99.90;;;;;;4986467;28;20790;-82
2022/04/22 08:56:10;;;;;;;6.25;2.70;;;12.60;99.90;;;;;;4987578;28;20046;-82
2022/04/22 08:58:36;;;;;;;6.82;2.92;;;12.70;99.90;;;;;;4991148;28;20071;-82
2022/04/22 09:01:02;;;;;;;5.63;2.50;;;12.90;99.90;;;;;;5002895;28;20042;-84
2022/04/22 09:03:29;;;;;;;4.07;2.35;;;13.20;99.90;;;;;;5006873;28;20045;-81
2022/04/22 09:06:04;;;;;;;6.25;2.65;;;13.50;99.90;;;;;;4969070;28;20503;-81
2022/04/22 09:08:30;;;;;;;4.10;2.30;;;14.40;98.10;;;;;;4982676;28;20049;-82
2022/04/22 09:11:01;;;;;;;3.78;2.35;;;15.80;91.20;;;;;;4986211;28;20297;-82
2022/04/22 09:13:31;;;;;;;5.22;2.90;;;16.80;79.00;;;;;;5004668;28;20054;-83
2022/04/22 09:16:01;;;;;;;6.55;3.03;;;17.70;71.70;;;;;;4995918;28;20047;-82
2022/04/22 09:18:27;;;;;;;4.35;2.80;;;18.10;66.70;;;;;;4992822;28;20048;-83
2022/04/22 09:20:56;;;;;;;5.03;2.70;;;18.70;65.60;;;;;;5008298;28;20399;-82
2022/04/22 09:23:35;;;;;;;4.57;2.95;;;18.80;62.30;;;;;;5000011;28;20565;-83
2022/04/22 09:26:03;;;;;;;3.67;2.20;;;19.20;58.50;;;;;;4996440;28;20510;-83
2022/04/22 09:28:30;;;;;;;6.63;2.47;;;19.60;57.90;;;;;;4991218;28;20125;-85
2022/04/22 09:31:00;;;;;;;3.70;2.20;;;19.60;55.30;;;;;;4998650;28;20054;-83
2022/04/22 09:33:34;;;;;;;4.60;2.45;;;19.70;53.90;;;;;;4984325;28;20099;-80
2022/04/22 09:44:27;;;;;;;4.78;2.30;;;21.50;50.60;;;;;;4993771;28;20107;-85
2022/04/22 09:47:12;;;;;;;5.55;2.63;;;21.70;47.20;;;;;;4983168;28;20061;-83
2022/04/22 09:49:42;;;;;;;4.57;2.72;;;22.00;45.90;;;;;;4990033;28;20054;-84
2022/04/22 09:52:09;;;;;;;5.30;2.67;;;22.00;45.70;;;;;;4990267;28;20053;-84
2022/04/22 09:54:35;;;;;;;12.07;2.78;;;22.10;46.20;;;;;;4987754;28;20406;-83
2022/04/22 09:57:03;;;;;;;7.68;2.33;;;22.20;45.00;;;;;;4986666;28;20050;-83
2022/04/22 09:59:30;;;;;;;5.07;2.25;;;22.10;44.10;;;;;;4990065;28;20045;-84
2022/04/22 10:01:56;;;;;;;5.85;2.40;;;21.90;43.50;;;;;;4985075;28;20400;-83
2022/04/22 10:04:22;;;;;;;8.52;2.33;;;21.70;42.90;;;;;;4971206;28;20054;-83
2022/04/22 10:06:50;;;;;;;7.55;2.42;;;21.90;43.10;;;;;;4982308;28;20034;-84
2022/04/22 10:09:16;;;;;;;5.88;2.47;;;22.30;43.30;;;;;;5002043;28;20050;-83
2022/04/22 10:11:44;;;;;;;4.10;2.58;;;22.70;43.10;;;;;;5008811;28;20053;-84
2022/04/22 10:14:10;;;;;;;3.63;2.70;;;23.00;42.00;;;;;;5000924;28;20038;-84
2022/04/22 10:16:37;;;;;;;7.38;2.72;;;23.20;42.50;;;;;;5002727;28;20042;-83
2022/04/22 10:19:04;;;;;;;5.38;2.40;;;23.60;41.80;;;;;;4974573;28;20527;-83
2022/04/22 10:21:29;;;;;;;5.47;2.95;;;23.90;40.00;;;;;;4989119;28;20178;-83
2022/04/22 10:23:58;;;;;;;4.10;2.67;;;24.00;39.20;;;;;;4976941;28;20053;-83
2022/04/22 10:26:26;;;;;;;5.57;3.00;;;23.70;38.80;;;;;;4992092;28;20053;-83
2022/04/22 10:28:53;;;;;;;5.03;2.97;;;23.80;39.20;;;;;;4988395;28;20108;-83
2022/04/22 10:31:19;;;;;;;7.10;3.30;;;24.00;39.20;;;;;;4987044;28;20073;-83
2022/04/22 10:33:46;;;;;;;4.80;2.65;;;24.20;38.30;;;;;;4997250;28;20084;-83
2022/04/22 10:36:17;;;;;;;8.20;2.70;;;24.50;37.90;;;;;;5003332;28;20129;-83
2022/04/22 10:38:46;;;;;;;7.10;2.97;;;24.50;37.60;;;;;;4989353;28;20045;-82
2022/04/22 10:41:18;;;;;;;9.27;3.10;;;24.60;37.50;;;;;;5002972;28;20042;-84
2022/04/22 10:49:36;;;;;;;6.72;3.13;;;25.10;35.20;;;;;;4997223;28;20057;-83
2022/04/22 10:52:18;;;;;;;6.22;3.22;;;25.20;36.00;;;;;;4975496;28;20038;-83
2022/04/22 10:54:52;;;;;;;4.13;2.88;;;25.40;35.90;;;;;;4990993;28;20057;-83
2022/04/22 10:57:23;;;;;;;5.20;2.97;;;25.90;36.10;;;;;;4972675;28;20113;-83
2022/04/22 11:00:07;;;;;;;4.53;3.15;;;26.30;35.40;;;;;;4996182;28;20805;-84
2022/04/22 11:02:34;;;;;;;4.95;3.20;;;26.60;34.10;;;;;;4985032;28;20070;-82
2022/04/22 11:08:05;;;;;;;5.47;2.50;;;26.40;32.30;;;;;;5007823;28;20049;-82
2022/04/22 11:10:46;;;;;;;4.25;3.08;;;26.50;32.70;;;;;;4976369;28;20118;-83
2022/04/22 11:13:29;;;;;;;7.30;3.05;;;26.70;31.70;;;;;;4977904;28;20057;-85
2022/04/22 11:16:15;;;;;;;5.25;2.85;;;26.80;32.20;;;;;;4996221;28;20132;-82
2022/04/22 11:18:43;;;;;;;6.57;3.22;;;26.70;33.30;;;;;;4993663;28;20096;-82
2022/04/22 11:21:15;;;;;;;3.95;3.10;;;26.70;33.50;;;;;;4994172;28;20042;-84
2022/04/22 11:23:46;;;;;;;3.72;3.00;;;26.50;32.80;;;;;;4994174;28;20080;-83
2022/04/22 11:26:16;;;;;;;4.93;3.40;;;26.20;32.90;;;;;;4997381;28;20060;-86
2022/04/22 11:28:45;;;;;;;5.28;2.75;;;26.30;34.20;;;;;;4983809;28;20488;-82
2022/04/22 11:31:13;;;;;;;5.07;3.42;;;26.50;34.00;;;;;;5003951;28;20053;-82
2022/04/22 11:34:02;;;;;;;5.50;3.20;;;26.90;33.20;;;;;;5010118;28;20061;-83
2022/04/22 11:36:28;;;;;;;5.75;3.50;;;27.10;32.70;;;;;;5003296;28;20088;-83
2022/04/22 11:38:55;;;;;;;4.93;3.00;;;27.30;32.40;;;;;;4995518;28;20053;-83
2022/04/22 11:41:22;;;;;;;5.55;3.03;;;27.50;32.00;;;;;;5009888;28;20512;-82
2022/04/22 11:43:48;;;;;;;9.50;3.67;;;27.40;31.20;;;;;;4972094;28;20108;-83
2022/04/22 11:46:16;;;;;;;7.78;3.50;;;27.40;30.80;;;;;;4986512;28;20054;-86
2022/04/22 11:48:53;;;;;;;6.65;3.50;;;27.20;30.30;;;;;;4993542;28;20104;-82
2022/04/22 11:51:20;;;;;;;8.10;2.92;;;27.20;31.00;;;;;;4986133;28;20050;-84
2022/04/22 11:53:51;;;;;;;4.85;3.00;;;27.40;32.00;;;;;;4983008;28;20134;-82
2022/04/22 11:56:22;;;;;;;11.88;3.58;;;27.80;30.70;;;;;;4995911;28;20053;-83
2022/04/22 11:58:55;;;;;;;4.50;2.63;;;28.10;30.00;;;;;;5003561;28;20479;-83
2022/04/22 12:06:58;;;;;;;4.97;3.13;;;28.50;28.10;;;;;;4977114;28;20105;-82
2022/04/22 12:09:25;;;;;;;5.45;3.50;;;28.40;29.10;;;;;;5004692;28;20050;-83
2022/04/22 12:11:51;;;;;;;5.80;3.72;;;28.20;28.70;;;;;;4971932;28;20042;-83
2022/04/22 12:14:24;;;;;;;5.63;3.45;;;27.90;29.60;;;;;;5006536;28;20042;-83
2022/04/22 12:16:57;;;;;;;6.75;3.58;;;27.90;29.70;;;;;;4993981;28;20129;-82
2022/04/22 12:19:24;;;;;;;4.20;2.97;;;27.80;30.10;;;;;;4992976;28;20045;-82
2022/04/22 12:21:50;;;;;;;5.38;3.10;;;28.10;30.20;;;;;;4980989;28;20390;-82
2022/04/22 12:24:16;;;;;;;5.40;3.45;;;28.70;29.60;;;;;;4983054;28;20459;-83
2022/04/22 12:26:44;;;;;;;6.55;3.63;;;29.10;28.60;;;;;;4979833;28;20053;-82
2022/04/22 12:29:11;;;;;;;5.32;3.30;;;29.20;28.20;;;;;;5010889;28;20103;-82
2022/04/22 12:31:45;;;;;;;6.95;3.17;;;29.20;28.10;;;;;;4994078;28;20645;-81
2022/04/22 12:34:13;;;;;;;7.40;3.53;;;28.80;28.30;;;;;;4995652;28;20054;-82
2022/04/22 12:36:53;;;;;;;5.22;3.15;;;28.60;28.70;;;;;;5008892;28;20080;-82
2022/04/22 12:39:33;;;;;;;7.78;3.60;;;28.90;27.40;;;;;;4991380;28;20168;-84
2022/04/22 12:41:58;;;;;;;5.70;3.70;;;28.10;28.20;;;;;;4993212;28;20137;-82
2022/04/22 12:44:25;;;;;;;7.72;3.42;;;27.80;29.00;;;;;;4958458;28;20133;-83
2022/04/22 12:52:25;;;;;;;6.45;3.88;;;29.00;28.80;;;;;;4998298;28;20149;-84
2022/04/22 12:55:05;;;;;;;8.00;4.13;;;28.70;27.70;;;;;;5003933;28;20051;-81
2022/04/22 12:57:31;;;;;;;6.72;4.10;;;28.40;27.50;;;;;;4984778;28;20074;-82
2022/04/22 12:59:57;;;;;;;6.35;3.83;;;27.70;28.60;;;;;;5002082;28;20089;-83
2022/04/22 13:02:33;;;;;;;9.95;3.95;;;26.50;29.70;;;;;;4995838;28;20100;-83
2022/04/22 13:05:25;;;;;;;6.53;4.30;;;26.70;31.30;;;;;;4979286;28;20054;-82
2022/04/22 13:07:51;;;;;;;7.53;4.40;;;27.40;30.10;;;;;;5000722;28;20077;-81
2022/04/22 13:10:20;;;;;;;7.30;4.93;;;27.60;29.70;;;;;;5000186;28;20076;-82
2022/04/22 13:12:46;;;;;;;8.00;4.50;;;27.20;30.00;;;;;;5002497;28;20292;-81
2022/04/22 13:15:17;;;;;;;8.30;4.78;;;27.00;30.10;;;;;;4974559;28;20503;-80
2022/04/22 13:17:44;;;;;;;6.43;4.72;;;26.00;31.10;;;;;;4990085;28;20057;-81
2022/04/22 13:20:12;;;;;;;6.05;4.43;;;25.80;32.10;;;;;;4958607;28;20108;-81
2022/04/22 13:22:39;;;;;;;10.40;4.80;;;26.10;31.50;;;;;;4990905;28;20092;-82
2022/04/22 13:25:05;;;;;;;15.25;4.80;;;26.40;31.20;;;;;;5000631;28;20045;-82
2022/04/22 13:27:31;;;;;;;8.77;4.68;;;25.60;31.40;;;;;;4991561;28;20081;-81
2022/04/22 13:29:57;;;;;;;6.50;4.32;;;25.10;33.00;;;;;;4990878;28;20096;-81
2022/04/22 13:32:23;;;;;;;6.72;4.78;;;26.00;32.90;;;;;;4989165;28;20054;-84
2022/04/22 13:34:48;;;;;;;7.35;4.65;;;26.10;32.50;;;;;;4958094;28;20057;-83
2022/04/22 13:37:14;;;;;;;8.02;5.00;;;25.30;33.10;;;;;;4960730;28;20125;-82
2022/04/22 13:39:40;;;;;;;8.18;4.75;;;24.20;34.50;;;;;;4987678;28;20046;-82
2022/04/22 13:42:05;;;;;;;7.97;4.78;;;23.00;36.50;;;;;;5009423;28;20111;-81
2022/04/22 13:52:45;;;;;;;9.90;5.03;;;21.40;41.80;;;;;;4986490;28;20132;-81
2022/04/22 13:55:12;;;;;;;9.75;5.00;;;21.10;41.60;;;;;;4984377;28;20297;-81
2022/04/22 13:57:38;;;;;;;10.43;6.40;;;20.70;42.60;;;;;;5005239;28;20049;-82
2022/04/22 14:00:04;;;;;;;9.73;5.60;;;20.30;43.00;;;;;;4972803;28;20112;-83
2022/04/22 14:02:30;;;;;;;8.70;5.22;;;20.40;43.70;;;;;;4987826;28;20567;-84
2022/04/22 14:04:56;;;;;;;8.75;4.70;;;21.40;42.50;;;;;;4982869;28;20092;-82
2022/04/22 14:07:22;;;;;;;7.10;5.13;;;22.80;41.00;;;;;;5006714;28;20050;-83
2022/04/22 14:09:48;;;;;;;10.85;5.72;;;22.40;39.30;;;;;;4991640;28;20042;-85